createdAt,value
2019-03-23T00:01:41.722Z,15.93
2019-03-23T00:04:36.736Z,14.90
2019-03-23T00:07:08.905Z,13.30
2019-03-23T00:10:08.399Z,13.05
2019-03-23T00:13:01.159Z,12.95
2019-03-23T00:16:02.440Z,13.78
2019-03-23T00:19:02.153Z,15.38
2019-03-23T00:21:40.373Z,15.43
2019-03-23T00:27:38.515Z,14.38
2019-03-23T00:34:54.280Z,13.40
2019-03-23T00:37:50.167Z,18.57
2019-03-23T00:46:32.422Z,11.12
2019-03-23T00:49:09.292Z,17.37
2019-03-23T00:51:54.139Z,11.93
2019-03-23T00:54:42.141Z,14.40
2019-03-23T01:00:01.521Z,12.88
2019-03-23T01:03:13.122Z,13.62
2019-03-23T01:05:53.399Z,13.68
2019-03-23T01:08:37.975Z,12.58
2019-03-23T01:11:22.332Z,14.47
2019-03-23T01:14:19.559Z,12.10
2019-03-23T01:16:57.914Z,12.07
2019-03-23T01:20:13.089Z,13.62
2019-03-23T01:26:12.664Z,12.07
2019-03-23T01:32:20.037Z,12.60
2019-03-23T01:34:55.206Z,12.43
2019-03-23T01:37:50.534Z,14.35
2019-03-23T01:41:03.737Z,13.00
2019-03-23T01:43:49.357Z,15.13
2019-03-23T01:50:28.606Z,12.33
2019-03-23T01:52:53.494Z,12.40
2019-03-23T01:58:16.428Z,13.68
2019-03-23T02:00:52.359Z,11.08
2019-03-23T02:03:44.167Z,17.40
2019-03-23T02:06:33.471Z,13.03
2019-03-23T02:09:15.025Z,14.35
2019-03-23T02:25:02.118Z,14.28
2019-03-23T02:42:59.413Z,12.58
2019-03-23T02:45:58.963Z,12.25
2019-03-23T02:48:58.433Z,11.90
2019-03-23T02:51:58.179Z,13.88
2019-03-23T02:54:32.453Z,13.00
2019-03-23T02:57:13.201Z,13.72
2019-03-23T03:03:49.835Z,11.83
2019-03-23T03:06:36.810Z,9.93
2019-03-23T03:09:32.513Z,12.75
2019-03-23T03:12:24.671Z,13.40
2019-03-23T03:15:31.534Z,12.23
2019-03-23T03:18:13.951Z,12.37
2019-03-23T03:21:16.156Z,13.03
2019-03-23T03:24:05.770Z,18.75
2019-03-23T03:27:11.499Z,14.85
2019-03-23T03:29:55.684Z,11.40
2019-03-23T03:33:09.230Z,12.82
2019-03-23T03:36:06.922Z,10.58
2019-03-23T03:43:09.447Z,10.72
2019-03-23T04:10:07.828Z,11.12
2019-03-23T04:13:59.861Z,10.50
2019-03-23T04:21:40.408Z,11.35
2019-03-23T04:33:12.123Z,13.83
2019-03-23T04:41:00.045Z,8.88
2019-03-23T04:52:13.581Z,9.90
2019-03-23T05:07:35.088Z,10.32
2019-03-23T05:18:03.698Z,9.98
2019-03-23T05:21:34.597Z,10.90
2019-03-23T05:28:44.859Z,12.68
2019-03-23T05:32:40.402Z,11.20
2019-03-23T05:36:23.938Z,11.50
2019-03-23T05:40:00.024Z,8.20
2019-03-23T05:46:46.689Z,9.50
2019-03-23T05:56:45.430Z,10.80
2019-03-23T06:03:06.168Z,10.10
2019-03-23T06:06:27.555Z,12.00
2019-03-23T06:10:36.980Z,11.90
2019-03-23T06:13:18.198Z,10.72
2019-03-23T06:23:56.985Z,9.18
2019-03-23T06:57:47.388Z,11.10
2019-03-23T07:00:18.991Z,10.65
2019-03-23T07:03:12.709Z,11.18
2019-03-23T07:05:49.496Z,10.45
2019-03-23T07:11:35.891Z,9.03
2019-03-23T07:14:13.153Z,11.10
2019-03-23T07:16:53.312Z,11.30
2019-03-23T07:19:34.518Z,9.93
2019-03-23T07:22:09.814Z,7.80
2019-03-23T07:24:45.391Z,8.33
2019-03-23T07:27:20.042Z,9.08
2019-03-23T07:29:53.620Z,8.25
2019-03-23T07:32:26.743Z,7.70
2019-03-23T07:35:01.300Z,9.65
2019-03-23T07:37:36.064Z,8.30
2019-03-23T07:40:11.874Z,7.58
2019-03-23T07:42:46.825Z,6.60
2019-03-23T07:45:19.057Z,6.80
2019-03-23T07:47:55.457Z,7.67
2019-03-23T07:50:32.160Z,10.32
2019-03-23T07:53:06.521Z,11.93
2019-03-23T07:55:42.095Z,9.30
2019-03-23T07:58:23.620Z,11.53
2019-03-23T08:01:00.125Z,11.88
2019-03-23T08:03:49.115Z,8.45
2019-03-23T08:06:18.797Z,9.03
2019-03-23T08:08:55.724Z,9.88
2019-03-23T08:11:28.050Z,15.18
2019-03-23T08:14:05.982Z,9.63
2019-03-23T08:16:42.778Z,8.45
2019-03-23T08:19:27.084Z,9.88
2019-03-23T08:22:28.227Z,7.37
2019-03-23T08:24:43.491Z,9.83
2019-03-23T08:27:19.185Z,8.30
2019-03-23T08:29:59.458Z,9.10
2019-03-23T08:32:34.465Z,16.45
2019-03-23T08:35:06.418Z,9.70
2019-03-23T08:37:40.323Z,9.45
2019-03-23T08:40:14.225Z,8.85
2019-03-23T08:42:47.586Z,8.30
2019-03-23T08:45:29.013Z,27.20
2019-03-23T08:48:03.864Z,17.42
2019-03-23T08:50:51.514Z,8.78
2019-03-23T08:53:27.038Z,25.10
2019-03-23T08:55:59.247Z,25.15
2019-03-23T08:58:30.799Z,18.90
2019-03-23T09:01:02.246Z,12.37
2019-03-23T09:03:35.647Z,25.95
2019-03-23T09:06:12.786Z,24.27
2019-03-23T09:08:45.978Z,13.90
2019-03-23T09:11:20.939Z,30.08
2019-03-23T09:13:54.253Z,35.05
2019-03-23T09:16:28.415Z,26.93
2019-03-23T09:19:00.016Z,25.23
2019-03-23T09:21:46.631Z,26.73
2019-03-23T09:24:21.458Z,29.82
2019-03-23T09:27:03.208Z,27.48
2019-03-23T09:29:38.640Z,29.60
2019-03-23T09:32:17.377Z,21.40
2019-03-23T09:34:53.383Z,17.12
2019-03-23T09:37:38.340Z,28.32
2019-03-23T09:40:11.031Z,25.15
2019-03-23T09:43:00.790Z,27.30
2019-03-23T09:45:41.245Z,26.90
2019-03-23T09:48:52.516Z,24.98
2019-03-23T09:51:39.945Z,16.55
2019-03-23T09:54:17.789Z,17.32
2019-03-23T09:56:59.459Z,32.53
2019-03-23T09:59:34.398Z,16.35
2019-03-23T10:02:19.014Z,24.55
2019-03-23T10:04:57.795Z,31.07
2019-03-23T10:07:34.916Z,33.20
2019-03-23T10:10:27.062Z,21.87
2019-03-23T10:13:02.312Z,18.73
2019-03-23T10:15:33.774Z,33.70
2019-03-23T10:18:05.016Z,18.05
2019-03-23T10:20:39.033Z,17.73
2019-03-23T10:23:14.991Z,32.95
2019-03-23T10:25:50.153Z,39.85
2019-03-23T10:28:28.461Z,34.70
2019-03-23T10:31:03.934Z,38.55
2019-03-23T10:33:36.748Z,35.58
2019-03-23T10:36:16.792Z,34.75
2019-03-23T10:38:56.952Z,33.75
2019-03-23T10:41:35.378Z,36.03
2019-03-23T10:44:08.859Z,38.35
2019-03-23T10:46:44.628Z,29.05
2019-03-23T10:49:20.071Z,39.92
2019-03-23T10:51:52.163Z,36.42
2019-03-23T10:54:25.483Z,31.85
2019-03-23T10:57:02.063Z,23.57
2019-03-23T10:59:41.481Z,23.98
2019-03-23T11:02:12.783Z,28.32
2019-03-23T11:04:46.020Z,23.87
2019-03-23T11:07:20.067Z,21.17
2019-03-23T11:09:53.794Z,31.75
2019-03-23T11:12:30.752Z,24.82
2019-03-23T11:15:19.228Z,34.08
2019-03-23T11:17:51.947Z,36.80
2019-03-23T11:20:46.323Z,38.15
2019-03-23T11:23:21.891Z,22.82
2019-03-23T11:26:01.715Z,34.63
2019-03-23T11:28:37.774Z,32.65
2019-03-23T11:31:13.602Z,27.60
2019-03-23T11:33:55.961Z,22.80
2019-03-23T11:36:32.599Z,29.40
2019-03-23T11:39:07.591Z,33.45
2019-03-23T11:41:56.371Z,30.40
2019-03-23T11:44:38.378Z,25.10
2019-03-23T11:47:15.708Z,33.95
2019-03-23T11:49:56.901Z,25.17
2019-03-23T11:52:42.079Z,19.17
2019-03-23T11:56:33.106Z,29.23
2019-03-23T11:58:16.045Z,29.70
2019-03-23T12:01:13.224Z,32.28
2019-03-23T12:04:01.208Z,26.15
2019-03-23T12:06:53.503Z,29.25
2019-03-23T12:09:28.567Z,30.00
2019-03-23T12:12:04.517Z,32.40
2019-03-23T12:14:43.463Z,32.13
2019-03-23T12:17:26.463Z,27.35
2019-03-23T12:20:11.854Z,25.55
2019-03-23T12:27:02.513Z,28.85
2019-03-23T12:29:39.694Z,27.17
2019-03-23T12:32:23.263Z,23.90
2019-03-23T12:35:33.637Z,22.07
2019-03-23T12:38:19.224Z,27.62
2019-03-23T12:41:22.318Z,24.70
2019-03-23T12:43:44.505Z,34.70
2019-03-23T12:46:47.893Z,17.77
2019-03-23T12:49:41.488Z,40.03
2019-03-23T12:52:42.589Z,28.55
2019-03-23T12:55:27.025Z,22.82
2019-03-23T12:58:30.987Z,18.02
2019-03-23T13:03:45.461Z,27.82
2019-03-23T13:06:28.446Z,33.40
2019-03-23T13:09:15.175Z,41.50
2019-03-23T13:11:49.399Z,39.80
2019-03-23T13:15:15.080Z,39.18
2019-03-23T13:17:21.740Z,33.75
2019-03-23T13:19:56.912Z,28.25
2019-03-23T13:22:28.420Z,26.65
2019-03-23T13:25:02.646Z,32.95
2019-03-23T13:27:36.559Z,38.20
2019-03-23T13:30:13.262Z,30.72
2019-03-23T13:32:49.454Z,34.05
2019-03-23T13:35:28.050Z,21.97
2019-03-23T13:38:00.158Z,38.98
2019-03-23T13:40:42.576Z,40.28
2019-03-23T13:43:19.495Z,35.23
2019-03-23T13:45:53.224Z,27.95
2019-03-23T13:48:34.323Z,25.70
2019-03-23T13:51:26.120Z,35.70
2019-03-23T13:54:46.600Z,36.85
2019-03-23T14:31:15.036Z,27.90
2019-03-23T14:35:28.550Z,39.67
2019-03-23T14:42:09.700Z,25.27
2019-03-23T14:44:50.757Z,38.98
2019-03-23T14:47:45.481Z,36.55
2019-03-23T14:50:33.214Z,39.27
2019-03-23T14:53:15.017Z,38.60
2019-03-23T14:55:51.106Z,38.42
2019-03-23T14:58:24.676Z,28.38
2019-03-23T15:01:02.202Z,41.30
2019-03-23T15:03:33.956Z,33.45
2019-03-23T15:06:06.501Z,34.38
2019-03-23T15:08:47.013Z,38.38
2019-03-23T15:11:46.520Z,36.88
2019-03-23T15:15:33.554Z,39.08
2019-03-23T15:26:38.471Z,24.77
2019-03-23T16:08:25.647Z,25.68
2019-03-23T16:11:18.148Z,25.17
2019-03-23T16:13:56.857Z,29.82
2019-03-23T16:16:52.710Z,30.88
2019-03-23T16:19:50.025Z,28.30
2019-03-23T16:22:44.384Z,29.23
2019-03-23T16:26:31.377Z,28.30
2019-03-23T16:29:59.483Z,33.23
2019-03-23T16:37:01.181Z,31.15
2019-03-23T16:39:51.812Z,30.30
2019-03-23T16:42:44.678Z,30.35
2019-03-23T16:45:18.062Z,28.77
2019-03-23T17:03:12.544Z,34.55
2019-03-23T17:06:45.817Z,32.38
2019-03-23T17:17:03.976Z,32.15
2019-03-23T17:19:44.239Z,32.20
2019-03-23T17:22:46.867Z,32.35
2019-03-23T17:26:02.345Z,29.67
2019-03-23T17:28:55.021Z,34.25
2019-03-23T17:35:45.132Z,35.33
2019-03-23T17:38:47.568Z,35.88
2019-03-23T17:41:26.259Z,34.35
2019-03-23T17:44:25.566Z,28.30
2019-03-23T17:54:24.337Z,34.45
2019-03-23T18:01:28.802Z,35.15
2019-03-23T18:04:38.607Z,32.78
2019-03-23T18:09:33.676Z,36.00
2019-03-23T18:12:10.982Z,37.75
2019-03-23T18:14:59.786Z,35.52
2019-03-23T18:17:40.911Z,33.78
2019-03-23T18:23:48.047Z,33.10
2019-03-23T18:27:07.166Z,35.20
2019-03-23T18:29:52.557Z,32.20
2019-03-23T18:32:37.742Z,36.20
2019-03-23T18:35:19.250Z,41.55
2019-03-23T18:38:13.459Z,37.30
2019-03-23T18:40:58.571Z,38.67
2019-03-23T18:47:31.094Z,36.58
2019-03-23T18:58:06.543Z,62.67
2019-03-23T19:01:30.655Z,89.83
2019-03-23T19:05:09.554Z,45.03
2019-03-23T19:08:36.341Z,63.28
2019-03-23T19:26:31.170Z,81.85
2019-03-23T19:29:01.929Z,85.77
2019-03-23T19:31:33.033Z,73.62
2019-03-23T19:34:03.889Z,80.50
2019-03-23T19:36:35.343Z,70.83
2019-03-23T19:39:09.943Z,78.02
2019-03-23T19:41:41.065Z,71.75
2019-03-23T19:44:12.065Z,69.60
2019-03-23T19:46:43.497Z,69.35
2019-03-23T19:49:14.684Z,68.12
2019-03-23T19:51:45.814Z,60.43
2019-03-23T19:54:18.372Z,61.73
2019-03-23T19:56:49.068Z,63.20
2019-03-23T19:59:20.704Z,60.90
2019-03-23T20:01:52.841Z,66.17
2019-03-23T20:04:23.946Z,59.55
2019-03-23T20:06:54.878Z,59.77
2019-03-23T20:09:25.655Z,53.85
2019-03-23T20:11:57.867Z,61.45
2019-03-23T20:14:28.945Z,58.25
2019-03-23T20:17:00.521Z,64.60
2019-03-23T20:19:32.976Z,76.40
2019-03-23T20:22:06.746Z,58.17
2019-03-23T20:24:43.325Z,57.10
2019-03-23T20:27:14.538Z,62.20
2019-03-23T20:29:46.613Z,55.92
2019-03-23T20:32:17.553Z,55.38
2019-03-23T20:34:48.739Z,57.95
2019-03-23T20:37:20.202Z,50.03
2019-03-23T20:39:52.450Z,57.15
2019-03-23T20:42:23.224Z,58.65
2019-03-23T20:44:55.300Z,51.48
2019-03-23T20:47:26.461Z,58.17
2019-03-23T20:49:57.898Z,58.48
2019-03-23T20:52:29.256Z,51.37
2019-03-23T20:55:00.160Z,47.88
2019-03-23T20:57:37.473Z,50.65
2019-03-23T21:00:05.512Z,52.43
2019-03-23T21:02:37.027Z,47.03
2019-03-23T21:05:08.087Z,43.40
2019-03-23T21:07:38.894Z,50.95
2019-03-23T21:10:09.763Z,44.00
2019-03-23T21:12:41.376Z,42.50
2019-03-23T21:15:12.344Z,42.15
2019-03-23T21:17:51.056Z,41.45
2019-03-23T21:20:17.010Z,42.17
2019-03-23T21:22:47.836Z,40.50
2019-03-23T21:25:18.826Z,41.37
2019-03-23T21:27:49.973Z,39.67
2019-03-23T21:30:22.187Z,42.35
2019-03-23T21:32:53.122Z,40.28
2019-03-23T21:35:26.343Z,39.38
2019-03-23T21:37:57.838Z,45.15
2019-03-23T21:40:29.109Z,44.42
2019-03-23T21:43:04.638Z,39.53
2019-03-23T21:45:35.794Z,38.42
2019-03-23T21:48:07.766Z,35.65
2019-03-23T21:50:47.096Z,76.10
2019-03-23T21:53:11.596Z,101.45
2019-03-23T21:55:42.751Z,116.88
2019-03-23T21:58:13.857Z,81.42
2019-03-23T22:00:45.631Z,83.62
2019-03-23T22:03:16.746Z,42.10
2019-03-23T22:05:47.893Z,40.38
2019-03-23T22:08:18.589Z,41.73
2019-03-23T22:10:50.963Z,54.00
2019-03-23T22:13:22.251Z,44.00
2019-03-23T22:15:53.358Z,42.43
2019-03-23T22:18:24.083Z,39.20
2019-03-23T22:20:55.187Z,41.00
2019-03-23T22:23:25.955Z,39.73
2019-03-23T22:25:57.438Z,41.40
2019-03-23T22:28:28.243Z,38.85
2019-03-23T22:30:59.764Z,36.58
2019-03-23T22:33:34.323Z,35.23
2019-03-23T22:36:05.612Z,31.77
2019-03-23T22:38:36.362Z,34.60
2019-03-23T22:41:07.089Z,30.62
2019-03-23T22:43:37.902Z,32.05
2019-03-23T22:46:09.496Z,35.35
2019-03-23T22:48:41.009Z,35.45
2019-03-23T22:51:12.475Z,34.85
2019-03-23T22:53:43.973Z,37.55
2019-03-23T22:56:14.714Z,36.20
2019-03-23T22:58:45.711Z,38.85
2019-03-23T23:01:16.632Z,33.92
2019-03-23T23:03:47.770Z,38.23
2019-03-23T23:06:18.930Z,37.30
2019-03-23T23:08:50.110Z,35.52
2019-03-23T23:11:21.911Z,34.95
2019-03-23T23:13:53.723Z,38.28
2019-03-23T23:16:24.908Z,37.65
2019-03-23T23:18:56.102Z,32.55
2019-03-23T23:21:27.619Z,31.73
2019-03-23T23:23:58.925Z,35.00
2019-03-23T23:26:31.258Z,34.95
2019-03-23T23:29:02.058Z,33.08
2019-03-23T23:31:33.322Z,35.40
2019-03-23T23:34:04.338Z,31.93
2019-03-23T23:36:36.658Z,32.60
2019-03-23T23:39:09.004Z,33.57
2019-03-23T23:41:39.788Z,36.85
2019-03-23T23:44:11.627Z,31.87
2019-03-23T23:46:42.820Z,38.83
2019-03-23T23:49:14.769Z,33.13
2019-03-23T23:51:50.175Z,35.23
2019-03-23T23:54:18.417Z,34.40
2019-03-23T23:56:49.556Z,31.73
2019-03-23T23:59:20.287Z,34.83
